Linden, NJ

5:40 PM EST on December 13, 2017 (GMT -0500)
Linden | | Change Station
Active Advisory: Special Statement

Elev 23 ft 40.62 °N, 74.24 °W | Updated 5 minutes ago

Clear
Clear
28 °F
Feels Like 17 °F
N
15
Wind Variable Wind from WNW
Gusts 24 mph

Today
High -- | Low -- °F
--% Chance of Precip.
Yesterday
High -- | Low -- °F
Precip. -- in
Pressure 29.68 in
Visibility 10.0 miles
Clouds Clear
Windchill 17 °F
Dew Point 5 °F
Humidity 38%
Rainfall 0.00 in
Snow Depth Not available.
7:12 AM 4:30 PM
Waning Crescent, 16% visible
METAR KLDJ 132235Z AUTO 29013G21KT 10SM CLR M02/M15 A2968 RMK AO2 T10211149
Pressure 29.68 in
Visibility 10.0 miles
Clouds Clear
Windchill 17 °F
Dew Point 5 °F
Humidity 38%
Rainfall 0.00 in
Snow Depth Not available.
7:12 AM 4:30 PM
Waning Crescent, 16% visible
METAR KLDJ 132235Z AUTO 29013G21KT 10SM CLR M02/M15 A2968 RMK AO2 T10211149

Get Your Daily Forecast Email!

Thanks for signing up!

Be on the lookout for a verification email in your inbox.

You'll start receiving severe weather alerts in your inbox..

×

10-Day Weather Forecast

Almanac

Astronomy

Dec. 13, 2017 Rise Set
Actual Time
Civil Twilight
Nautical Twilight
Astronomical Twilight
Moon
Length of Visible Light
Length of Day
Tomorrow will be .
, % of the Moon is Illuminated

Today's Extremes

State Highs State Lows

Community

WunderPhotos

Category 6

Welcome to Category 6. This is the collective home for Weather Underground's featured writeups by Dr. Jeff Masters (right), Bob Henson (left), Chris Burt, and other regular contributors.

Nearby

Air Quality

  Air Quality AQ Index Pollutant
Not available.

Snow Depth

Station Depth Elevation

Earthquake Activity

City Distance Mag. Time & Date
Minimum magnitude displayed is 2.5.

Coastal Water Temperatures

Place Temperature

Stations

Nearby Weather Stations

Station Location Temp. Windchill Dew Point Humidity Wind Precip. Elev Updated Type
                   

Watches & Warnings

Special Statement
Issued: 2:54 PM EST Dec. 13, 2017 – National Weather Service

... Accumulating snow early Thursday morning...

Light snow is expected to develop overnight and continue into
portions of the morning commute. Around 1 to potentially 2 inches
of snow is forecast. Roadways may become snow covered which may
create a slippery morning commute. Motorists are urged to use
extra caution if traveling Thursday morning.



254 PM EST Wed Dec 13 2017

... Accumulating snow early Thursday morning...

Light snow is expected to develop overnight and continue into
portions of the morning commute. Around 1 to potentially 2 inches
of snow is forecast. Roadways may become snow covered which may
create a slippery morning commute. Motorists are urged to use
extra caution if traveling Thursday morning.